createdAt,value
2022-10-20T00:00:23.803Z,1.00
2022-10-20T00:02:50.827Z,0.88
2022-10-20T00:05:18.524Z,0.80
2022-10-20T00:07:45.408Z,0.88
2022-10-20T00:10:12.240Z,0.90
2022-10-20T00:12:39.344Z,0.90
2022-10-20T00:15:06.718Z,0.80
2022-10-20T00:17:33.508Z,0.63
2022-10-20T00:20:00.339Z,0.70
2022-10-20T00:22:27.244Z,0.77
2022-10-20T00:24:54.126Z,0.80
2022-10-20T00:27:21.036Z,1.17
2022-10-20T00:29:49.304Z,4.18
2022-10-20T00:32:16.354Z,1.20
2022-10-20T00:34:43.219Z,1.05
2022-10-20T00:37:10.121Z,1.30
2022-10-20T00:39:37.047Z,1.10
2022-10-20T00:42:05.030Z,1.00
2022-10-20T00:44:58.402Z,1.00
2022-10-20T00:47:43.307Z,0.98
2022-10-20T00:50:18.968Z,1.20
2022-10-20T00:52:47.171Z,1.15
2022-10-20T00:55:20.831Z,1.05
2022-10-20T00:57:50.517Z,1.23
2022-10-20T01:00:18.183Z,1.20
2022-10-20T01:02:45.725Z,1.13
2022-10-20T01:05:14.003Z,1.80
2022-10-20T01:07:41.126Z,1.95
2022-10-20T01:10:09.760Z,1.60
2022-10-20T01:12:58.355Z,1.35
2022-10-20T01:15:49.149Z,1.50
2022-10-20T01:18:24.881Z,1.40
2022-10-20T01:21:05.289Z,1.50
2022-10-20T01:23:55.608Z,1.55
2022-10-20T01:27:12.511Z,1.00
2022-10-20T01:29:52.454Z,1.10
2022-10-20T01:32:31.336Z,1.15
2022-10-20T01:35:13.456Z,1.38
2022-10-20T01:38:07.384Z,1.33
2022-10-20T01:40:52.018Z,1.10
2022-10-20T01:43:21.822Z,1.10
2022-10-20T01:45:51.310Z,1.30
2022-10-20T01:48:22.523Z,1.40
2022-10-20T01:50:50.815Z,1.17
2022-10-20T01:53:17.795Z,1.10
2022-10-20T01:55:44.625Z,1.25
2022-10-20T01:58:44.767Z,1.20
2022-10-20T02:01:28.446Z,1.13
2022-10-20T02:03:59.686Z,1.20
2022-10-20T02:06:51.318Z,1.38
2022-10-20T02:09:46.782Z,1.30
2022-10-20T02:12:29.455Z,1.10
2022-10-20T02:14:57.448Z,1.25
2022-10-20T02:17:24.514Z,1.70
2022-10-20T02:19:53.682Z,1.50
2022-10-20T02:22:22.685Z,1.50
2022-10-20T02:24:52.142Z,1.60
2022-10-20T02:27:27.868Z,1.30
2022-10-20T02:30:02.425Z,1.35
2022-10-20T02:32:31.502Z,1.40
2022-10-20T02:35:00.335Z,1.40
2022-10-20T02:37:29.263Z,1.50
2022-10-20T02:39:56.153Z,1.10
2022-10-20T02:42:23.004Z,1.50
2022-10-20T02:44:49.856Z,1.30
2022-10-20T02:47:17.005Z,1.20
2022-10-20T02:49:43.909Z,1.20
2022-10-20T02:52:10.769Z,1.30
2022-10-20T02:54:37.696Z,0.98
2022-10-20T02:57:04.777Z,1.50
2022-10-20T02:59:31.609Z,1.15
2022-10-20T03:01:58.460Z,0.98
2022-10-20T03:06:57.289Z,1.65
2022-10-20T03:09:24.122Z,1.10
2022-10-20T03:11:50.955Z,1.08
2022-10-20T03:14:17.810Z,1.27
2022-10-20T03:16:44.665Z,2.63
2022-10-20T03:19:11.982Z,1.42
2022-10-20T03:21:39.313Z,1.40
2022-10-20T03:24:06.434Z,1.20
2022-10-20T03:26:33.570Z,1.30
2022-10-20T03:29:00.459Z,1.15
2022-10-20T03:31:27.355Z,1.33
2022-10-20T03:33:54.299Z,1.20
2022-10-20T03:36:21.375Z,1.27
2022-10-20T03:38:48.331Z,1.67
2022-10-20T03:41:15.210Z,1.60
2022-10-20T03:43:42.153Z,1.40
2022-10-20T03:46:11.593Z,1.70
2022-10-20T03:48:39.933Z,1.30
2022-10-20T03:51:08.458Z,1.40
2022-10-20T03:53:35.950Z,1.60
2022-10-20T03:56:10.768Z,1.42
2022-10-20T03:58:37.673Z,1.98
2022-10-20T04:01:06.492Z,1.60
2022-10-20T04:03:33.519Z,2.00
2022-10-20T04:06:00.374Z,2.78
2022-10-20T04:08:27.304Z,2.00
2022-10-20T04:10:54.255Z,2.15
2022-10-20T04:13:21.063Z,1.92
2022-10-20T04:15:47.904Z,1.80
2022-10-20T04:18:14.770Z,1.90
2022-10-20T04:20:44.370Z,1.83
2022-10-20T04:23:11.887Z,1.98
2022-10-20T04:25:45.885Z,1.83
2022-10-20T04:28:13.864Z,2.00
2022-10-20T04:30:41.468Z,2.20
2022-10-20T04:33:08.368Z,2.28
2022-10-20T04:35:35.426Z,2.30
2022-10-20T04:38:02.412Z,1.95
2022-10-20T04:40:29.348Z,2.00
2022-10-20T04:42:56.223Z,1.75
2022-10-20T04:45:23.154Z,2.10
2022-10-20T04:47:49.963Z,2.38
2022-10-20T04:50:16.962Z,2.28
2022-10-20T04:52:43.930Z,2.17
2022-10-20T04:55:10.780Z,2.67
2022-10-20T04:57:37.882Z,2.92
2022-10-20T05:00:05.513Z,3.90
2022-10-20T05:02:32.403Z,2.33
2022-10-20T05:04:59.282Z,1.83
2022-10-20T05:07:29.049Z,1.92
2022-10-20T05:09:55.894Z,2.00
2022-10-20T05:12:22.679Z,2.67
2022-10-20T05:14:49.520Z,2.20
2022-10-20T05:17:16.440Z,2.35
2022-10-20T05:19:43.254Z,2.30
2022-10-20T05:22:10.103Z,2.03
2022-10-20T05:24:37.060Z,2.10
2022-10-20T05:27:03.969Z,2.47
2022-10-20T05:29:30.885Z,2.55
2022-10-20T05:31:57.770Z,1.83
2022-10-20T05:34:24.655Z,3.08
2022-10-20T05:36:53.972Z,2.83
2022-10-20T05:39:22.117Z,2.80
2022-10-20T05:41:48.967Z,2.90
2022-10-20T05:44:15.814Z,4.20
2022-10-20T05:46:42.805Z,4.25
2022-10-20T05:49:16.761Z,3.22
2022-10-20T05:51:45.555Z,2.67
2022-10-20T05:54:13.476Z,3.65
2022-10-20T05:56:40.372Z,3.28
2022-10-20T05:59:10.911Z,2.97
2022-10-20T06:01:50.346Z,2.75
2022-10-20T06:04:20.579Z,2.40
2022-10-20T06:06:48.999Z,2.35
2022-10-20T06:09:16.260Z,5.32
2022-10-20T06:11:43.152Z,7.63
2022-10-20T06:14:10.841Z,18.15
2022-10-20T06:16:38.298Z,8.00
2022-10-20T06:19:06.736Z,4.07
2022-10-20T06:21:35.043Z,11.05
2022-10-20T06:24:04.772Z,9.32
2022-10-20T06:26:33.449Z,4.95
2022-10-20T06:29:04.359Z,4.30
2022-10-20T06:31:39.261Z,3.08
2022-10-20T06:34:13.225Z,4.35
2022-10-20T06:36:41.999Z,4.20
2022-10-20T06:39:12.259Z,2.45
2022-10-20T06:41:39.145Z,3.10
2022-10-20T06:44:07.180Z,2.38
2022-10-20T06:46:36.454Z,2.60
2022-10-20T06:49:05.985Z,4.10
2022-10-20T06:51:33.435Z,3.03
2022-10-20T06:54:01.121Z,2.55
2022-10-20T06:56:30.115Z,3.42
2022-10-20T06:58:58.340Z,4.13
2022-10-20T07:01:26.509Z,3.05
2022-10-20T07:03:59.848Z,3.38
2022-10-20T07:06:29.921Z,3.20
2022-10-20T07:08:58.318Z,2.97
2022-10-20T07:11:27.857Z,2.97
2022-10-20T07:13:55.237Z,2.33
2022-10-20T07:16:24.407Z,3.65
2022-10-20T07:18:52.164Z,3.05
2022-10-20T07:21:24.501Z,2.70
2022-10-20T07:23:51.550Z,2.90
2022-10-20T07:26:24.497Z,2.65
2022-10-20T07:28:55.947Z,2.22
2022-10-20T07:34:06.758Z,2.22
2022-10-20T07:36:44.328Z,1.95
2022-10-20T07:39:13.518Z,4.45
2022-10-20T07:41:40.618Z,3.35
2022-10-20T07:44:07.970Z,5.65
2022-10-20T07:46:34.983Z,3.53
2022-10-20T07:49:42.842Z,3.03
2022-10-20T07:51:48.779Z,3.17
2022-10-20T07:54:15.620Z,3.13
2022-10-20T07:56:43.632Z,2.75
2022-10-20T07:59:12.226Z,2.20
2022-10-20T08:01:39.437Z,2.75
2022-10-20T08:04:06.300Z,2.72
2022-10-20T08:06:33.229Z,2.20
2022-10-20T08:09:00.348Z,2.15
2022-10-20T08:11:27.738Z,2.15
2022-10-20T08:13:54.688Z,3.00
2022-10-20T08:16:24.047Z,1.67
2022-10-20T08:21:35.012Z,1.40
2022-10-20T08:24:02.874Z,1.45
2022-10-20T08:26:29.960Z,1.27
2022-10-20T08:28:56.801Z,1.20
2022-10-20T08:31:23.787Z,1.23
2022-10-20T08:33:52.992Z,1.23
2022-10-20T08:36:21.051Z,1.20
2022-10-20T08:38:48.265Z,1.30
2022-10-20T08:41:34.476Z,1.60
2022-10-20T08:44:04.841Z,1.10
2022-10-20T08:46:35.270Z,1.10
2022-10-20T08:49:05.515Z,1.67
2022-10-20T08:51:37.316Z,1.25
2022-10-20T08:54:05.951Z,1.08
2022-10-20T08:56:35.358Z,1.00
2022-10-20T08:59:03.529Z,1.13
2022-10-20T09:01:37.320Z,1.30
2022-10-20T09:04:15.777Z,1.02
2022-10-20T09:06:44.283Z,1.85
2022-10-20T09:09:16.767Z,1.25
2022-10-20T09:11:44.587Z,1.60
2022-10-20T09:14:12.437Z,1.33
2022-10-20T09:16:59.339Z,1.90
2022-10-20T09:19:27.766Z,1.27
2022-10-20T09:22:02.828Z,1.40
2022-10-20T09:24:31.877Z,1.30
2022-10-20T09:27:23.680Z,1.00
2022-10-20T09:29:50.553Z,1.67
2022-10-20T09:32:52.912Z,0.88
2022-10-20T09:35:29.470Z,1.67
2022-10-20T09:38:01.871Z,1.00
2022-10-20T09:40:28.809Z,3.25
2022-10-20T09:43:16.794Z,1.73
2022-10-20T09:45:56.141Z,1.73
2022-10-20T09:48:26.937Z,0.80
2022-10-20T09:50:56.599Z,1.33
2022-10-20T09:53:36.210Z,1.67
2022-10-20T09:56:03.423Z,1.17
2022-10-20T09:58:37.937Z,1.60
2022-10-20T10:01:15.613Z,0.68
2022-10-20T10:03:48.603Z,1.15
2022-10-20T10:06:21.164Z,0.90
2022-10-20T10:08:48.198Z,0.85
2022-10-20T10:11:18.692Z,1.10
2022-10-20T10:13:48.144Z,1.10
2022-10-20T10:16:19.999Z,0.80
2022-10-20T10:19:07.200Z,1.17
2022-10-20T10:21:51.584Z,1.17
2022-10-20T10:24:39.430Z,1.58
2022-10-20T10:27:44.645Z,1.38
2022-10-20T10:30:20.111Z,2.33
2022-10-20T10:32:48.141Z,1.30
2022-10-20T10:35:37.458Z,1.42
2022-10-20T10:38:04.569Z,4.13
2022-10-20T10:40:43.289Z,1.67
2022-10-20T10:43:29.843Z,2.92
2022-10-20T10:46:07.322Z,0.90
2022-10-20T10:49:06.226Z,0.80
2022-10-20T10:51:38.786Z,1.00
2022-10-20T10:54:11.997Z,1.05
2022-10-20T10:56:55.218Z,0.77
2022-10-20T10:59:43.176Z,0.90
2022-10-20T11:02:28.303Z,0.93
2022-10-20T11:05:26.207Z,1.20
2022-10-20T11:07:58.661Z,1.00
2022-10-20T11:10:37.892Z,1.20
2022-10-20T11:13:32.459Z,1.27
2022-10-20T11:16:02.302Z,1.20
2022-10-20T11:19:16.622Z,1.00
2022-10-20T11:21:52.036Z,1.08
2022-10-20T11:24:43.090Z,0.80
2022-10-20T11:27:11.188Z,0.80
2022-10-20T11:30:19.478Z,0.70
2022-10-20T11:32:49.605Z,1.65
2022-10-20T11:35:16.490Z,0.90
2022-10-20T11:37:54.652Z,1.85
2022-10-20T11:40:32.336Z,1.90
2022-10-20T11:43:29.289Z,1.50
2022-10-20T11:46:12.105Z,1.20
2022-10-20T11:48:48.467Z,1.00
2022-10-20T11:51:30.511Z,1.00
2022-10-20T11:54:05.409Z,0.90
2022-10-20T11:57:03.190Z,2.13
2022-10-20T11:59:48.690Z,1.55
2022-10-20T12:02:40.031Z,2.00
2022-10-20T12:05:39.923Z,2.17
2022-10-20T12:08:34.477Z,1.40
2022-10-20T12:11:19.912Z,1.10
2022-10-20T12:14:17.602Z,0.68
2022-10-20T12:16:59.270Z,0.80
2022-10-20T12:21:57.227Z,3.40
2022-10-20T12:24:39.223Z,1.33
2022-10-20T12:27:08.967Z,0.93
2022-10-20T12:29:35.825Z,1.30
2022-10-20T12:32:36.770Z,0.80
2022-10-20T12:35:13.171Z,3.08
2022-10-20T12:37:43.418Z,2.58
2022-10-20T12:40:13.035Z,1.10
2022-10-20T12:42:46.533Z,1.50
2022-10-20T12:45:19.259Z,1.38
2022-10-20T12:48:20.868Z,2.67
2022-10-20T12:50:50.003Z,1.00
2022-10-20T12:53:26.760Z,1.27
2022-10-20T12:56:19.375Z,0.93
2022-10-20T12:59:23.299Z,1.40
2022-10-20T13:02:08.867Z,4.85
2022-10-20T13:04:58.381Z,1.95
2022-10-20T13:07:47.113Z,1.30
2022-10-20T13:10:35.747Z,1.08
2022-10-20T13:13:02.519Z,1.02
2022-10-20T13:15:38.029Z,1.17
2022-10-20T13:18:04.781Z,1.38
2022-10-20T13:20:50.142Z,1.00
2022-10-20T13:23:33.813Z,1.20
2022-10-20T13:26:18.761Z,0.90
2022-10-20T13:28:48.368Z,1.00
2022-10-20T13:31:26.733Z,1.27
2022-10-20T13:34:05.741Z,1.27
2022-10-20T13:36:35.860Z,1.42
2022-10-20T13:39:13.806Z,1.70
2022-10-20T13:41:42.474Z,1.30
2022-10-20T13:45:04.024Z,1.50
2022-10-20T13:48:00.566Z,1.20
2022-10-20T13:50:32.069Z,1.30
2022-10-20T13:55:31.543Z,1.17
2022-10-20T13:58:07.064Z,2.13
2022-10-20T14:00:36.201Z,0.95
2022-10-20T14:03:23.354Z,1.10
2022-10-20T14:05:50.246Z,1.40
2022-10-20T14:08:19.995Z,1.30
2022-10-20T14:10:54.624Z,1.30
2022-10-20T14:13:24.319Z,1.83
2022-10-20T14:15:55.580Z,1.55
2022-10-20T14:18:38.253Z,1.90
2022-10-20T14:21:17.068Z,2.08
2022-10-20T14:23:45.748Z,2.22
2022-10-20T14:26:21.949Z,2.88
2022-10-20T14:28:52.967Z,5.95
2022-10-20T14:31:24.562Z,2.08
2022-10-20T14:36:30.436Z,4.80
2022-10-20T14:39:00.765Z,3.17
2022-10-20T14:41:29.201Z,1.90
2022-10-20T14:44:12.940Z,2.00
2022-10-20T14:46:47.948Z,2.42
2022-10-20T14:49:38.063Z,2.03
2022-10-20T14:52:29.550Z,1.73
2022-10-20T14:54:56.525Z,2.47
2022-10-20T14:57:31.847Z,3.50
2022-10-20T15:00:03.982Z,1.83
2022-10-20T15:02:42.960Z,16.77
2022-10-20T15:05:36.215Z,5.60
2022-10-20T15:08:29.494Z,2.63
2022-10-20T15:10:57.474Z,2.75
2022-10-20T15:13:27.906Z,2.65
2022-10-20T15:15:56.487Z,2.17
2022-10-20T15:18:25.058Z,2.33
2022-10-20T15:20:54.076Z,2.40
2022-10-20T15:23:22.154Z,2.25
2022-10-20T15:25:54.061Z,2.05
2022-10-20T15:28:40.703Z,2.08
2022-10-20T15:31:16.632Z,4.30
2022-10-20T15:33:43.503Z,3.22
2022-10-20T15:36:20.916Z,2.63
2022-10-20T15:38:49.095Z,2.63
2022-10-20T15:41:19.243Z,2.50
2022-10-20T15:43:46.296Z,2.75
2022-10-20T15:46:15.044Z,2.90
2022-10-20T15:48:43.102Z,2.83
2022-10-20T15:51:29.204Z,2.22
2022-10-20T15:53:56.804Z,5.25
2022-10-20T15:56:23.737Z,2.67
2022-10-20T15:58:50.932Z,1.83
2022-10-20T16:01:19.747Z,2.33
2022-10-20T16:03:47.696Z,2.10
2022-10-20T16:06:17.024Z,3.65
2022-10-20T16:08:45.875Z,2.40
2022-10-20T16:11:14.753Z,2.35
2022-10-20T16:13:42.273Z,13.93
2022-10-20T16:16:13.397Z,2.70
2022-10-20T16:18:40.264Z,2.10
2022-10-20T16:21:08.191Z,2.15
2022-10-20T16:23:40.707Z,3.28
2022-10-20T16:26:12.986Z,1.95
2022-10-20T16:28:43.384Z,1.70
2022-10-20T16:31:14.236Z,2.17
2022-10-20T16:33:41.143Z,1.83
2022-10-20T16:36:11.125Z,2.00
2022-10-20T16:38:40.203Z,2.00
2022-10-20T16:41:16.677Z,3.38
2022-10-20T16:43:45.811Z,3.30
2022-10-20T16:46:14.099Z,4.00
2022-10-20T16:48:43.814Z,3.10
2022-10-20T16:51:13.249Z,2.42
2022-10-20T16:53:40.113Z,2.45
2022-10-20T16:56:07.736Z,2.10
2022-10-20T16:58:35.102Z,2.40
2022-10-20T17:01:11.360Z,2.45
2022-10-20T17:06:11.337Z,3.88
2022-10-20T17:08:39.023Z,6.45
2022-10-20T17:11:08.780Z,3.17
2022-10-20T17:13:36.759Z,3.55
2022-10-20T17:16:05.902Z,4.20
2022-10-20T17:18:32.916Z,4.00
2022-10-20T17:20:59.901Z,5.55
2022-10-20T17:23:27.089Z,6.40
2022-10-20T17:25:58.331Z,4.50
2022-10-20T17:28:25.186Z,3.72
2022-10-20T17:30:53.142Z,3.78
2022-10-20T17:33:20.010Z,3.40
2022-10-20T17:35:49.953Z,6.07
2022-10-20T17:38:16.789Z,5.63
2022-10-20T17:40:43.708Z,11.25
2022-10-20T17:43:10.611Z,8.98
2022-10-20T17:45:38.304Z,5.70
2022-10-20T17:48:05.550Z,5.43
2022-10-20T17:50:32.838Z,5.40
2022-10-20T17:53:01.294Z,5.13
2022-10-20T17:55:29.127Z,7.47
2022-10-20T17:57:56.426Z,3.85
2022-10-20T18:00:43.790Z,3.30
2022-10-20T18:03:10.353Z,4.38
2022-10-20T18:05:37.233Z,4.45
2022-10-20T18:08:04.155Z,4.80
2022-10-20T18:10:31.278Z,3.63
2022-10-20T18:12:58.171Z,3.47
2022-10-20T18:15:25.088Z,4.53
2022-10-20T18:17:51.920Z,4.13
2022-10-20T18:20:18.879Z,5.75
2022-10-20T18:22:45.699Z,4.85
2022-10-20T18:25:12.519Z,5.47
2022-10-20T18:27:39.320Z,4.50
2022-10-20T18:30:08.448Z,4.93
2022-10-20T18:32:36.533Z,4.13
2022-10-20T18:35:03.787Z,4.25
2022-10-20T18:37:30.602Z,9.57
2022-10-20T18:39:57.489Z,11.68
2022-10-20T18:42:24.313Z,11.15
2022-10-20T18:44:51.126Z,7.55
2022-10-20T18:47:17.986Z,4.07
2022-10-20T18:49:44.765Z,3.50
2022-10-20T18:52:11.695Z,4.05
2022-10-20T18:54:39.522Z,3.70
2022-10-20T18:57:06.403Z,3.50
2022-10-20T18:59:33.207Z,13.05
2022-10-20T19:02:00.020Z,8.90
2022-10-20T19:04:26.848Z,5.75
2022-10-20T19:06:53.739Z,5.28
2022-10-20T19:09:21.516Z,5.32
2022-10-20T19:14:17.283Z,10.23
2022-10-20T19:16:49.780Z,8.80
2022-10-20T19:19:16.991Z,4.55
2022-10-20T19:21:43.893Z,3.83
2022-10-20T19:24:22.299Z,4.18
2022-10-20T19:27:02.045Z,3.53
2022-10-20T19:29:39.389Z,3.33
2022-10-20T19:32:07.046Z,3.55
2022-10-20T19:34:39.799Z,4.07
2022-10-20T19:37:08.059Z,4.15
2022-10-20T19:39:38.317Z,5.40
2022-10-20T19:42:06.882Z,5.68
2022-10-20T19:44:34.315Z,4.53
2022-10-20T19:47:01.865Z,5.05
2022-10-20T19:49:29.012Z,5.00
2022-10-20T19:51:56.244Z,5.25
2022-10-20T19:54:26.216Z,5.00
2022-10-20T19:56:53.208Z,5.22
2022-10-20T19:59:20.457Z,4.53
2022-10-20T20:01:49.664Z,5.38
2022-10-20T20:04:16.497Z,5.38
2022-10-20T20:06:43.345Z,4.50
2022-10-20T20:09:11.678Z,4.90
2022-10-20T20:11:39.269Z,4.68
2022-10-20T20:14:10.306Z,4.80
2022-10-20T20:16:37.742Z,4.68
2022-10-20T20:19:04.734Z,4.43
2022-10-20T20:21:31.736Z,4.60
2022-10-20T20:24:01.355Z,4.22
2022-10-20T20:26:31.621Z,4.30
2022-10-20T20:28:59.466Z,7.53
2022-10-20T20:31:27.797Z,5.50
2022-10-20T20:33:56.894Z,5.35
2022-10-20T20:36:27.071Z,4.65
2022-10-20T20:38:58.386Z,4.25
2022-10-20T20:41:27.457Z,3.15
2022-10-20T20:43:54.603Z,4.05
2022-10-20T20:46:23.125Z,4.78
2022-10-20T20:48:50.491Z,4.07
2022-10-20T20:51:17.603Z,3.70
2022-10-20T20:53:44.604Z,3.80
2022-10-20T20:56:14.835Z,4.20
2022-10-20T20:58:45.266Z,3.83
2022-10-20T21:01:19.118Z,4.05
2022-10-20T21:03:46.308Z,4.35
2022-10-20T21:06:17.569Z,3.92
2022-10-20T21:08:47.718Z,4.20
2022-10-20T21:11:18.148Z,3.25
2022-10-20T21:13:48.313Z,3.83
2022-10-20T21:16:35.650Z,3.45
2022-10-20T21:19:05.756Z,3.90
2022-10-20T21:21:35.080Z,4.15
2022-10-20T21:24:03.457Z,3.53
2022-10-20T21:26:30.603Z,4.00
2022-10-20T21:28:57.838Z,4.30
2022-10-20T21:31:26.432Z,4.20
2022-10-20T21:33:58.618Z,3.80
2022-10-20T21:36:27.575Z,4.65
2022-10-20T21:38:54.911Z,5.47
2022-10-20T21:41:28.017Z,4.72
2022-10-20T21:43:57.216Z,4.57
2022-10-20T21:46:27.038Z,3.42
2022-10-20T21:48:57.893Z,3.55
2022-10-20T21:51:27.149Z,3.50
2022-10-20T21:53:58.962Z,4.10
2022-10-20T21:56:26.533Z,3.47
2022-10-20T21:58:54.338Z,3.90
2022-10-20T22:01:23.831Z,3.63
2022-10-20T22:03:52.186Z,3.75
2022-10-20T22:06:21.267Z,3.13
2022-10-20T22:08:50.076Z,2.92
2022-10-20T22:11:30.256Z,3.05
2022-10-20T22:13:57.920Z,2.67
2022-10-20T22:16:28.525Z,2.80
2022-10-20T22:19:00.829Z,2.88
2022-10-20T22:21:28.504Z,2.75
2022-10-20T22:23:56.846Z,3.95
2022-10-20T22:26:27.868Z,3.13
2022-10-20T22:28:55.297Z,2.83
2022-10-20T22:31:23.463Z,2.53
2022-10-20T22:33:55.306Z,2.47
2022-10-20T22:36:23.078Z,2.28
2022-10-20T22:38:49.943Z,2.25
2022-10-20T22:41:16.954Z,2.30
2022-10-20T22:43:43.928Z,2.25
2022-10-20T22:46:10.846Z,2.25
2022-10-20T22:48:37.926Z,1.95
2022-10-20T22:51:07.140Z,2.22
2022-10-20T22:53:34.277Z,2.20
2022-10-20T22:56:10.304Z,2.45
2022-10-20T22:58:37.358Z,2.00
2022-10-20T23:01:14.030Z,2.58
2022-10-20T23:03:41.099Z,2.63
2022-10-20T23:06:13.126Z,2.55
2022-10-20T23:08:45.973Z,2.65
2022-10-20T23:11:14.231Z,2.10
2022-10-20T23:13:41.223Z,2.30
2022-10-20T23:16:08.631Z,2.10
2022-10-20T23:18:35.612Z,2.47
2022-10-20T23:21:03.073Z,2.40
2022-10-20T23:23:29.999Z,1.90
2022-10-20T23:25:58.545Z,2.05
2022-10-20T23:28:27.752Z,1.90
2022-10-20T23:31:05.606Z,1.63
2022-10-20T23:33:32.492Z,2.30
2022-10-20T23:35:59.392Z,1.65
2022-10-20T23:38:26.230Z,1.95
2022-10-20T23:40:53.083Z,1.83
2022-10-20T23:43:19.934Z,2.03
2022-10-20T23:45:46.759Z,2.40
2022-10-20T23:48:13.793Z,2.83
2022-10-20T23:50:40.679Z,3.60
2022-10-20T23:53:07.465Z,3.20
2022-10-20T23:55:34.279Z,3.25
2022-10-20T23:58:01.142Z,3.50
